Latest Coastal Weather Observations for Bunbury

IDW60701

Issued at 12:25 pm WST Thursday 23 October 2014 (issued every 10 minutes, with the page automatically refreshed every 10 minutes)

About coastal observations | Map of coastal stations | Coastal observations for WA | Marine services | Other Formats
Station Details ID: 009965 Name: BUNBURY Lat: -33.36 Lon: 115.64 Height: 5.2 m
Data from the previous 72 hours. | See also: Recent months at Bunbury
Date/Time
WST
Temp

°C
Wind Pressure Rain
since 9am
mm
Weather Cloud Vis
km
Sea
Height
m
Swell
Dir
 
Speed
knots
Gust
knots
hPa Trend Height
m
Period
s
Dir
23/12:00pm 20.9 WSW 11 17 1015.1 - 0.2 - - - - - - -
23/11:30am 20.4 WSW 11 15 1015.1 - 0.2 - - - - - - -
23/11:00am 20.5 WSW 9 13 1015.2 - 0.2 - - - - - - -
23/10:30am 19.1 WSW 9 12 1015.1 - 0.2 - - - - - - -
23/10:00am 19.8 WSW 8 14 1015.0 - 0.0 - - - - - - -
23/09:30am 18.1 SSW 9 15 1014.9 - 0.0 - - - - - - -
23/09:00am 16.9 WSW 11 20 1014.6 - - - - - - - - -
23/08:30am 19.3 W 11 18 1014.1 - - - - - - - - -
23/08:00am 18.6 W 12 16 1013.8 - - - - - - - - -
23/07:30am 18.0 WSW 9 12 1013.6 - - - - - - - - -
23/07:00am 18.0 W 11 17 1013.2 - - - - - - - - -
23/06:30am 17.7 W 10 16 1013.0 - - - - - - - - -
23/06:00am 17.6 W 8 13 1012.7 - - - - - - - - -
23/05:30am 17.2 W 9 13 1012.4 - - - - - - - - -
23/05:00am 17.4 W 10 15 1012.2 - - - - - - - - -
23/04:30am 17.1 WNW 9 13 1012.1 - - - - - - - - -
23/04:00am 16.9 WNW 7 11 1011.9 - - - - - - - - -
23/03:30am 16.8 WNW 8 12 1011.8 - - - - - - - - -
23/03:00am 16.8 WNW 8 13 1012.0 - 0.0 - - - - - - -
23/02:30am 17.1 W 9 13 1011.9 - - - - - - - - -
23/02:00am 17.2 W 8 12 1012.2 - - - - - - - - -
23/01:30am 16.2 W 4 7 1012.4 - - - - - - - - -
23/01:00am 16.8 W 3 5 1012.2 - - - - - - - - -
23/12:30am 17.6 W 6 8 1012.9 - - - - - - - - -
23/12:00am 17.8 W 8 12 1013.4 - - - - - - - - -
 
Date/Time
WST
Temp

°C
Wind Pressure Rain
since 9am
mm
Weather Cloud Vis
km
Sea
Height
m
Swell
Dir
 
Speed
knots
Gust
knots
hPa Trend Height
m
Period
s
Dir
22/11:30pm 17.5 W 8 11 1013.4 - - - - - - - - -
22/11:00pm 17.9 W 8 12 1013.5 - - - - - - - - -
22/10:30pm 17.9 W 6 11 1013.8 - - - - - - - - -
22/10:00pm 18.0 W 9 14 1013.7 - - - - - - - - -
22/09:30pm 17.9 W 9 13 1013.6 - - - - - - - - -
22/09:00pm 18.3 W 8 13 1013.4 - - - - - - - - -
22/08:30pm 18.4 W 7 13 1013.2 - - - - - - - - -
22/08:00pm 18.8 W 10 15 1012.9 - - - - - - - - -
22/07:30pm 19.1 W 7 11 1012.6 - - - - - - - - -
22/07:00pm 19.1 W 8 13 1012.3 - - - - - - - - -
22/06:30pm 19.5 WNW 6 12 1012.1 - - - - - - - - -
22/06:00pm 19.9 WNW 6 10 1011.7 - - - - - - - - -
22/05:30pm 20.5 W 10 14 1011.3 - - - - - - - - -
22/05:00pm 21.0 NW 8 11 1011.0 - - - - - - - - -
22/04:30pm 21.6 - - - 1010.4 - - - - - - - - -
22/02:30pm 26.6 WNW 9 12 1020.0 - 0.0 - - - - - - -
22/02:00pm 26.6 WNW 9 13 1015.4 - 0.0 - - - - - - -
22/01:30pm 28.6 NNW 10 14 1016.4 - 0.0 - - - - - - -
22/01:00pm 29.3 NNE 11 20 1016.8 - 0.0 - - - - - - -
22/12:30pm 29.2 NNE 11 22 1017.1 - 0.0 - - - - - - -
22/12:00pm 28.0 NE 12 20 1011.6 - 0.0 - - - - - - -
22/11:30am 27.2 ENE 12 18 1018.1 - 0.0 - - - - - - -
22/11:00am 26.6 ENE 11 18 1018.7 - 0.0 - - - - - - -
22/10:30am 25.8 ENE 10 17 1019.4 - 0.0 - - - - - - -
22/10:00am 24.6 ENE 11 16 1020.3 - 0.0 - - - - - - -
22/09:30am 23.9 NE 10 17 1020.7 - 0.0 - - - - - - -
22/09:00am 23.0 E 8 13 1021.0 - 0.0 - - - - - - -
22/08:30am 21.2 ENE 11 16 1021.1 - 0.0 - - - - - - -
22/08:00am 20.0 E 10 17 1021.2 - 0.0 - - - - - - -
22/07:30am 17.9 E 14 20 1021.6 - 0.0 - - - - - - -
22/07:00am 17.5 E 12 18 1021.5 - 0.0 - - - - - - -
22/06:30am 15.6 E 11 18 1018.4 - 0.0 - - - - - - -
22/06:00am 15.3 E 12 18 1022.1 - 0.0 - - - - - - -
22/05:30am 15.5 E 13 18 1021.9 - 0.0 - - - - - - -
22/05:00am 15.3 ENE 11 17 1021.5 - 0.0 - - - - - - -
22/04:30am 15.4 E 10 17 1021.6 - 0.0 - - - - - - -
22/04:00am 14.6 ESE 6 10 1021.5 - 0.0 - - - - - - -
22/03:30am 14.6 E 9 14 1021.7 - 0.0 - - - - - - -
22/03:00am 14.4 E 9 13 1021.9 - 0.0 - - - - - - -
22/02:30am 14.3 ESE 8 10 1021.5 - 0.0 - - - - - - -
22/02:00am 14.3 ESE 8 11 1021.7 - 0.0 - - - - - - -
22/01:30am 14.2 ESE 7 10 1021.8 - 0.0 - - - - - - -
22/01:00am 15.0 ESE 9 13 1022.0 - 0.0 - - - - - - -
22/12:30am 15.1 SE 7 10 1022.2 - 0.0 - - - - - - -
22/12:00am 15.6 ESE 7 10 1023.6 - 0.0 - - - - - - -
 
Date/Time
WST
Temp

°C
Wind Pressure Rain
since 9am
mm
Weather Cloud Vis
km
Sea
Height
m
Swell
Dir
 
Speed
knots
Gust
knots
hPa Trend Height
m
Period
s
Dir
21/11:30pm 16.3 E 9 14 1023.2 - 0.0 - - - - - - -
21/11:00pm 16.4 ESE 9 14 1023.3 - 0.0 - - - - - - -
21/10:30pm 15.3 ESE 5 8 1023.4 - 0.0 - - - - - - -
21/10:00pm 15.0 ESE 4 6 1023.6 - 0.0 - - - - - - -
21/09:30pm 15.4 SE 6 7 1023.8 - 0.0 - - - - - - -
21/09:00pm 15.5 SE 5 7 1024.1 - 0.0 - - - - - - -
21/08:30pm 16.2 SE 4 6 1024.3 - 0.0 - - - - - - -
21/08:00pm 16.5 SSE 3 5 1024.3 - 0.0 - - - - - - -
21/07:30pm 16.4 S 4 5 1020.4 - 0.0 - - - - - - -
21/07:00pm 16.6 S 3 4 1021.2 - 0.0 - - - - - - -
21/06:30pm 17.5 SSW 3 5 1021.1 - 0.0 - - - - - - -
21/06:00pm 18.4 SW 7 10 1020.8 - 0.0 - - - - - - -
21/05:30pm 18.9 SW 8 12 1020.6 - 0.0 - - - - - - -
21/05:00pm 19.6 SW 8 11 1022.7 - 0.0 - - - - - - -
21/04:30pm 20.3 WSW 8 12 1022.5 - 0.0 - - - - - - -
21/04:00pm 20.7 WSW 9 12 1022.2 - 0.0 - - - - - - -
21/03:30pm 21.2 WSW 7 11 1020.7 - 0.0 - - - - - - -
21/03:00pm 21.1 W 8 10 1021.9 - 0.0 - - - - - - -
21/02:30pm 20.6 WNW 7 9 1022.1 - 0.0 - - - - - - -
21/02:00pm 20.9 W 8 10 1022.2 - 0.0 - - - - - - -
21/01:30pm 20.9 W 8 11 1022.3 - 0.0 - - - - - - -
21/01:00pm 19.7 WNW 9 13 1022.6 - 0.0 - - - - - - -
21/12:30pm 21.0 WNW 6 9 1022.7 - 0.0 - - - - - - -
21/12:00pm 20.3 WNW 4 8 1022.3 - 0.0 - - - - - - -
21/11:30am 20.4 S 3 6 1022.9 - 0.0 - - - - - - -
21/11:00am 20.6 ESE 4 9 1022.9 - 0.0 - - - - - - -
21/10:30am 18.9 SSE 4 7 1022.9 - 0.0 - - - - - - -
21/10:00am 19.0 ENE 4 8 1023.2 - 0.0 - - - - - - -
21/09:30am 18.1 SE 5 10 1022.6 - 0.0 - - - - - - -
21/09:00am 17.4 SSE 5 9 1022.6 - 0.0 - - - - - - -
21/08:30am 16.7 SE 5 7 1022.4 - 0.0 - - - - - - -
21/08:00am 15.7 E 4 6 1022.3 - 0.0 - - - - - - -
21/07:30am 13.9 ESE 2 3 1023.0 - 0.0 - - - - - - -
21/07:00am 10.3 ESE 2 3 1021.3 - 0.0 - - - - - - -
21/06:30am 8.8 ESE 2 3 1022.7 - 0.0 - - - - - - -
21/06:00am 6.9 CALM 0 0 1020.1 - 0.0 - - - - - - -
21/05:30am 6.0 CALM 0 1 1020.2 - 0.0 - - - - - - -
21/05:00am 6.1 SSE 1 2 1019.6 - 0.0 - - - - - - -
21/04:30am 6.5 CALM 0 1 1020.4 - 0.0 - - - - - - -
21/04:00am 6.9 S 1 2 1018.8 - 0.0 - - - - - - -
21/03:30am 5.8 CALM 0 0 1018.5 - 0.0 - - - - - - -
21/03:00am 7.0 CALM 0 0 1018.2 - 0.0 - - - - - - -
21/02:30am 6.9 ESE 1 3 1017.9 - 0.0 - - - - - - -
21/02:00am 8.0 SSW 2 3 1017.9 - 0.0 - - - - - - -
21/01:30am 7.7 CALM 0 0 1019.8 - 0.0 - - - - - - -
21/01:00am 8.2 CALM 0 0 1017.9 - 0.0 - - - - - - -
21/12:30am 8.6 CALM 0 0 1018.2 - 0.0 - - - - - - -
21/12:00am 8.1 CALM 0 0 1018.1 - 0.0 - - - - - - -
 
Date/Time
WST
Temp

°C
Wind Pressure Rain
since 9am
mm
Weather Cloud Vis
km
Sea
Height
m
Swell
Dir
 
Speed
knots
Gust
knots
hPa Trend Height
m
Period
s
Dir
20/11:30pm 8.9 CALM 0 0 1017.8 - 0.0 - - - - - - -
20/11:00pm 9.5 CALM 0 0 1017.6 - 0.0 - - - - - - -
20/10:30pm 10.4 CALM 0 0 1017.7 - 0.0 - - - - - - -
20/10:00pm 11.2 CALM 0 1 1020.7 - 0.0 - - - - - - -
20/09:30pm 12.4 S 2 3 1017.8 - 0.0 - - - - - - -
20/09:00pm 13.1 S 3 4 1017.8 - 0.0 - - - - - - -
20/08:30pm 13.4 S 3 4 1017.5 - 0.0 - - - - - - -
20/08:00pm 13.7 S 3 4 1020.2 - 0.0 - - - - - - -
20/07:30pm 14.4 S 3 5 1020.0 - 0.0 - - - - - - -
20/07:00pm 15.4 SSW 4 6 1016.0 - 0.0 - - - - - - -
20/06:30pm 16.3 SW 6 10 1015.4 - 0.0 - - - - - - -
20/06:00pm 16.9 SW 8 13 1014.3 - 0.0 - - - - - - -
20/05:30pm 17.4 SW 10 16 1014.2 - 0.0 - - - - - - -
20/05:00pm 18.1 SW 11 17 1013.9 - 0.0 - - - - - - -
20/04:30pm 18.7 WSW 13 18 1013.8 - 0.0 - - - - - - -
20/04:00pm 19.3 WSW 13 21 1013.4 - 0.0 - - - - - - -
20/03:30pm 19.4 WSW 13 22 1017.4 - 0.0 - - - - - - -
20/03:00pm 19.7 WSW 13 18 1012.6 - 0.0 - - - - - - -
20/02:30pm 20.4 W 14 20 1012.5 - 0.0 - - - - - - -
20/02:00pm 19.5 WSW 13 18 1012.1 - 0.0 - - - - - - -
20/01:30pm 19.8 WSW 13 18 1011.9 - 0.0 - - - - - - -
20/01:00pm 20.1 W 11 14 1011.9 - 0.0 - - - - - - -
20/12:30pm 19.7 W 11 16 1011.4 - 0.0 - - - - - - -

Other Formats:

Comma delimited format used in spreadsheet applications
http://www.bom.gov.au/fwo/IDW60701/IDW60701.94604.axf

JavaScript Object Notation format (JSON) in row-major order
http://www.bom.gov.au/fwo/IDW60701/IDW60701.94604.json